Terminal Aerodrome Forecast
Issued by NWS Cleveland, OH

Home | Current Version | Previous Version | Graphics & Text | Print | Product List | Glossary On
Versions: 1 2 3 4 5 6 7 8 9 10 11 12 13 14 15 16 17 18 19 20 21 22
000
FTUS41 KCLE 251738
TAFCAK
TAF
KCAK 251738Z 2518/2618 27018G30KT P6SM OVC025
     FM251930 27020G30KT 5SM -SHSN OVC025
      TEMPO 2520/2523 2SM -SHSN BKN015
     FM260200 27012G18KT P6SM OVC025=

USA.gov is the U.S. government's official web portal to all federal, state and local government web resources and services.